Time;durP1;ratioP1;P1;durP2;ratioP2;P2;SDS_P1;SDS_P2;PMS_P1;PMS_P2;Temp;Humidity;BMP_temperature;BMP_pressure;BME280_temperature;BME280_humidity;BME280_pressure;Samples;Min_cycle;Max_cycle;Signal;HPM_P1;HPM_P2
2021/09/01 00:01:36;;;;;;;13.25;8.85;;;;;;;13.47;64.56;100857.47;10404041;28;20084;-65
2021/09/01 00:06:39;;;;;;;14.35;9.75;;;;;;;13.47;64.63;100846.94;10391850;28;20053;-65
2021/09/01 00:11:41;;;;;;;22.17;10.70;;;;;;;13.47;64.44;100833.81;10400481;28;20136;-66
2021/09/01 00:16:44;;;;;;;14.40;9.18;;;;;;;13.40;64.53;100835.91;10390715;28;20068;-65
2021/09/01 00:21:45;;;;;;;13.95;9.00;;;;;;;13.32;64.80;100838.13;10413221;28;20574;-66
2021/09/01 00:26:47;;;;;;;12.88;10.07;;;;;;;13.29;64.66;100835.66;10416351;28;20056;-66
2021/09/01 00:31:49;;;;;;;14.65;9.20;;;;;;;13.31;64.43;100835.59;10391197;28;20048;-65
2021/09/01 00:36:51;;;;;;;14.27;10.07;;;;;;;13.29;64.58;100830.38;10408436;28;20450;-65
2021/09/01 00:41:52;;;;;;;13.25;9.43;;;;;;;13.25;64.72;100828.88;10391010;28;20431;-66
2021/09/01 00:46:56;;;;;;;12.75;9.90;;;;;;;13.29;64.80;100826.94;10391181;28;20041;-65
2021/09/01 00:52:01;;;;;;;16.20;10.90;;;;;;;13.22;63.99;100843.97;10390547;28;20136;-65
2021/09/01 00:57:06;;;;;;;17.42;10.88;;;;;;;12.97;64.98;100844.47;10389422;28;20049;-65
2021/09/01 01:02:09;;;;;;;16.52;12.80;;;;;;;12.91;64.72;100848.31;10426034;28;20141;-66
2021/09/01 01:07:11;;;;;;;13.45;10.68;;;;;;;12.77;65.20;100856.09;10389475;28;20075;-65
2021/09/01 01:12:17;;;;;;;12.30;10.02;;;;;;;12.82;65.29;100850.59;10401817;28;20191;-66
2021/09/01 01:17:23;;;;;;;15.93;10.13;;;;;;;13.00;65.12;100852.22;10389715;28;20068;-66
2021/09/01 01:22:26;;;;;;;13.90;9.48;;;;;;;13.10;64.78;100856.00;10388904;28;20057;-66
2021/09/01 01:27:37;;;;;;;13.40;10.32;;;;;;;12.85;65.04;100861.75;10420408;28;20053;-66
2021/09/01 01:32:41;;;;;;;16.30;9.82;;;;;;;12.95;65.17;100868.22;10388573;28;20144;-66
2021/09/01 01:37:43;;;;;;;12.43;9.95;;;;;;;13.08;64.84;100878.03;10389410;28;20478;-66
2021/09/01 01:42:45;;;;;;;14.15;9.82;;;;;;;13.04;64.71;100873.88;10396601;28;20053;-65
2021/09/01 01:47:47;;;;;;;13.60;9.93;;;;;;;12.90;64.73;100870.22;10396395;28;20065;-65
2021/09/01 01:52:49;;;;;;;13.65;10.32;;;;;;;12.76;65.01;100872.75;10387964;28;20156;-66
2021/09/01 01:57:51;;;;;;;12.55;9.18;;;;;;;12.66;65.20;100873.34;10389391;28;20046;-66
2021/09/01 02:02:52;;;;;;;13.50;10.52;;;;;;;12.46;65.82;100877.00;10391352;28;20506;-66
2021/09/01 02:07:54;;;;;;;15.75;9.15;;;;;;;12.41;65.60;100878.19;10410528;28;20399;-65
2021/09/01 02:12:56;;;;;;;12.07;10.27;;;;;;;12.39;65.47;100880.91;10409570;28;20562;-65
2021/09/01 02:17:58;;;;;;;11.57;9.23;;;;;;;12.34;65.51;100871.53;10393393;28;20124;-65
2021/09/01 02:22:59;;;;;;;11.70;9.65;;;;;;;12.30;65.91;100875.25;10397791;28;20540;-66
2021/09/01 02:28:01;;;;;;;13.73;9.75;;;;;;;12.28;65.63;100877.97;10393664;28;20451;-65
2021/09/01 02:33:03;;;;;;;14.20;10.25;;;;;;;12.24;65.59;100879.03;10392262;28;20532;-65
2021/09/01 02:38:05;;;;;;;14.52;10.07;;;;;;;12.10;65.94;100874.50;10408681;28;20140;-66
2021/09/01 02:43:06;;;;;;;14.55;9.52;;;;;;;12.08;65.84;100880.72;10393141;28;20053;-66
2021/09/01 02:48:08;;;;;;;11.70;9.88;;;;;;;11.95;66.18;100882.25;10392620;28;20209;-65
2021/09/01 02:53:10;;;;;;;12.18;9.77;;;;;;;11.90;66.28;100884.28;10392353;28;20049;-66
2021/09/01 02:58:11;;;;;;;14.05;9.65;;;;;;;11.81;66.52;100892.59;10392362;28;20059;-66
2021/09/01 03:03:13;;;;;;;15.55;10.43;;;;;;;11.79;66.53;100892.69;10392919;28;20136;-66
2021/09/01 03:08:15;;;;;;;13.43;10.38;;;;;;;11.80;66.44;100891.78;10385328;28;20127;-65
2021/09/01 03:13:17;;;;;;;13.32;10.10;;;;;;;11.83;66.41;100890.75;10384373;28;20100;-66
2021/09/01 03:18:18;;;;;;;11.60;9.95;;;;;;;11.77;66.26;100894.53;10385977;28;20045;-66
2021/09/01 03:23:20;;;;;;;14.02;9.82;;;;;;;11.82;66.29;100894.31;10385570;28;20088;-66
2021/09/01 03:28:22;;;;;;;11.95;9.25;;;;;;;11.89;66.26;100898.31;10385777;28;20152;-66
2021/09/01 03:33:24;;;;;;;13.25;9.55;;;;;;;11.72;66.62;100890.44;10408190;28;20148;-66
2021/09/01 03:38:25;;;;;;;12.68;10.18;;;;;;;11.73;66.53;100892.13;10385526;28;20050;-66
2021/09/01 03:43:27;;;;;;;15.57;10.43;;;;;;;11.70;66.21;100893.13;10385069;28;20049;-66
2021/09/01 03:48:29;;;;;;;12.43;9.60;;;;;;;11.68;66.40;100894.13;10388275;28;20080;-66
2021/09/01 03:53:31;;;;;;;11.95;9.15;;;;;;;11.71;66.65;100896.59;10405396;28;20060;-65
2021/09/01 03:58:32;;;;;;;11.73;8.90;;;;;;;11.70;66.35;100905.41;10392186;28;20132;-66
2021/09/01 04:03:34;;;;;;;12.15;8.70;;;;;;;11.62;66.56;100915.41;10395088;28;20145;-66
2021/09/01 04:08:37;;;;;;;10.45;8.40;;;;;;;11.76;66.53;100912.97;10391746;28;20132;-65
2021/09/01 04:13:39;;;;;;;12.93;8.82;;;;;;;11.79;66.53;100916.25;10395795;28;20450;-66
2021/09/01 04:18:40;;;;;;;10.80;9.35;;;;;;;11.80;66.41;100925.00;10391869;28;20108;-67
2021/09/01 04:23:42;;;;;;;11.55;9.48;;;;;;;11.78;66.42;100916.34;10391395;28;20413;-67
2021/09/01 04:28:44;;;;;;;12.73;9.73;;;;;;;11.70;66.29;100918.50;10408213;28;20049;-67
2021/09/01 04:33:45;;;;;;;14.90;10.02;;;;;;;11.70;66.41;100915.88;10391495;28;20057;-66
2021/09/01 04:38:47;;;;;;;11.23;9.35;;;;;;;11.66;66.51;100924.81;10400233;28;20520;-66
2021/09/01 04:43:49;;;;;;;16.70;10.35;;;;;;;11.74;66.36;100931.38;10399793;28;21156;-67
2021/09/01 04:48:50;;;;;;;12.90;10.32;;;;;;;11.93;66.45;100932.16;10390659;28;20560;-67
2021/09/01 04:53:52;;;;;;;13.20;10.40;;;;;;;12.07;66.16;100934.09;10397857;28;20158;-66
2021/09/01 04:58:54;;;;;;;14.73;9.70;;;;;;;12.23;65.92;100950.78;10393533;28;20041;-67
2021/09/01 05:03:55;;;;;;;15.90;11.38;;;;;;;12.33;65.60;100944.16;10389318;28;20628;-66
2021/09/01 05:08:57;;;;;;;16.50;10.75;;;;;;;12.29;65.62;100949.66;10389761;28;20818;-66
2021/09/01 05:13:59;;;;;;;12.13;9.75;;;;;;;12.26;65.96;100944.50;10389340;28;20409;-67
2021/09/01 05:19:01;;;;;;;14.95;11.23;;;;;;;12.38;65.60;100946.53;10410526;28;20041;-67
2021/09/01 05:24:03;;;;;;;13.73;9.82;;;;;;;12.46;65.22;100949.63;10420628;28;20135;-65
2021/09/01 05:29:05;;;;;;;14.75;9.80;;;;;;;12.53;64.96;100956.25;10394568;28;20050;-66
2021/09/01 05:34:08;;;;;;;11.43;9.32;;;;;;;12.64;64.78;100959.19;10415702;28;20135;-66
2021/09/01 05:39:10;;;;;;;11.90;9.70;;;;;;;12.68;64.46;100964.19;10388511;28;20141;-66
2021/09/01 05:44:12;;;;;;;10.27;8.80;;;;;;;12.77;64.33;100966.34;10389621;28;20089;-66
2021/09/01 05:49:14;;;;;;;14.25;8.95;;;;;;;12.92;64.32;100957.63;10389372;28;20053;-66
2021/09/01 05:54:16;;;;;;;15.98;10.20;;;;;;;12.90;64.36;100967.38;10414718;28;20585;-66
2021/09/01 05:59:21;;;;;;;15.10;9.65;;;;;;;13.10;64.47;100962.84;10387968;28;20181;-67
2021/09/01 06:04:27;;;;;;;14.70;10.13;;;;;;;13.27;64.13;100965.41;10387694;28;20046;-66
2021/09/01 06:09:34;;;;;;;14.52;10.15;;;;;;;13.50;64.08;100970.28;10392108;28;20052;-66
2021/09/01 06:14:36;;;;;;;13.52;10.82;;;;;;;13.54;64.02;100974.41;10386274;28;20064;-66
2021/09/01 06:19:38;;;;;;;16.42;9.77;;;;;;;13.55;64.12;100970.88;10411145;28;20132;-67
2021/09/01 06:24:41;;;;;;;11.52;9.02;;;;;;;13.73;64.16;100967.22;10395425;28;20724;-66
2021/09/01 06:29:42;;;;;;;7.95;4.35;;;;;;;13.86;63.86;100973.47;10386437;28;20540;-66
2021/09/01 06:34:44;;;;;;;13.77;11.05;;;;;;;14.05;63.15;100968.84;10404767;28;20608;-66
2021/09/01 06:39:46;;;;;;;12.50;8.40;;;;;;;14.22;63.21;100973.16;10400843;28;20171;-67
2021/09/01 06:44:48;;;;;;;11.95;5.55;;;;;;;14.32;63.26;100958.50;10394329;28;20487;-67
2021/09/01 06:49:49;;;;;;;8.75;5.20;;;;;;;14.50;63.04;100968.84;10400400;28;20414;-67
2021/09/01 06:54:51;;;;;;;10.38;5.32;;;;;;;14.72;62.57;100964.91;10386028;28;20144;-67
2021/09/01 06:59:53;;;;;;;8.15;5.53;;;;;;;14.82;62.23;100966.06;10386710;28;20049;-67
2021/09/01 07:04:54;;;;;;;10.88;5.35;;;;;;;14.62;62.43;100966.38;10397925;28;20132;-67
2021/09/01 07:09:56;;;;;;;10.75;5.70;;;;;;;14.87;62.39;100969.25;10386474;28;20136;-67
2021/09/01 07:14:58;;;;;;;9.60;5.18;;;;;;;14.95;62.42;100967.84;10386254;28;20067;-67
2021/09/01 07:20:00;;;;;;;7.85;5.13;;;;;;;15.05;62.56;100971.59;10417403;28;20053;-66
2021/09/01 07:25:05;;;;;;;8.85;5.20;;;;;;;15.22;62.03;100974.03;10394572;28;20053;-67
2021/09/01 07:30:09;;;;;;;10.40;5.78;;;;;;;15.18;62.51;100971.69;10403199;28;20049;-67
2021/09/01 07:35:12;;;;;;;8.00;5.00;;;;;;;15.40;62.29;100978.16;10393102;28;20160;-67
2021/09/01 07:40:16;;;;;;;8.07;5.95;;;;;;;15.65;61.82;100985.41;10392953;28;20502;-67
2021/09/01 07:45:20;;;;;;;9.00;5.50;;;;;;;15.83;61.78;100992.13;10393067;28;20613;-67
2021/09/01 07:50:31;;;;;;;11.15;6.13;;;;;;;16.21;60.99;100986.97;10417466;28;20045;-66
2021/09/01 07:55:32;;;;;;;12.25;6.00;;;;;;;16.47;60.38;100995.81;10432653;28;20287;-66
2021/09/01 08:00:34;;;;;;;8.30;5.68;;;;;;;16.50;60.28;101003.53;10398982;28;20053;-66
2021/09/01 08:05:37;;;;;;;9.65;5.60;;;;;;;16.79;59.99;101010.34;10393244;28;20049;-68
2021/09/01 08:10:38;;;;;;;11.73;5.80;;;;;;;16.88;59.86;101012.31;10391283;28;20057;-67
2021/09/01 08:15:40;;;;;;;12.50;6.20;;;;;;;17.13;59.21;101014.13;10417458;28;20049;-67
2021/09/01 08:20:42;;;;;;;12.77;6.55;;;;;;;17.03;59.29;101022.69;10402049;28;20283;-67
2021/09/01 08:25:44;;;;;;;12.82;6.80;;;;;;;17.09;59.24;101026.72;10394089;28;20107;-67
2021/09/01 08:30:45;;;;;;;11.60;6.60;;;;;;;16.91;59.62;101033.28;10395952;28;20049;-68
2021/09/01 08:35:47;;;;;;;13.15;6.93;;;;;;;16.77;60.02;101034.19;10402823;28;20073;-67
2021/09/01 08:40:49;;;;;;;10.10;6.10;;;;;;;16.58;59.71;101027.63;10390787;28;20060;-67
2021/09/01 08:45:51;;;;;;;13.15;7.35;;;;;;;16.46;60.19;101028.44;10390067;28;20059;-67
2021/09/01 08:50:54;;;;;;;12.07;6.50;;;;;;;16.54;60.32;101036.69;10390085;28;20080;-67
2021/09/01 08:55:55;;;;;;;11.50;7.22;;;;;;;16.58;60.15;101038.19;10389221;28;20084;-67
2021/09/01 09:00:57;;;;;;;16.48;7.22;;;;;;;16.64;60.34;101045.69;10389104;28;20048;-67
2021/09/01 09:06:04;;;;;;;12.80;7.65;;;;;;;16.76;60.11;101042.22;10393829;28;20502;-71
2021/09/01 09:11:06;;;;;;;16.85;7.22;;;;;;;16.93;60.14;101032.22;10388733;28;20136;-71
2021/09/01 09:16:09;;;;;;;17.23;7.07;;;;;;;17.09;59.67;101034.63;10388662;28;20140;-72
2021/09/01 09:21:22;;;;;;;13.23;8.10;;;;;;;17.19;59.05;101034.84;10389406;28;20050;-72
2021/09/01 09:26:29;;;;;;;12.13;7.57;;;;;;;17.38;58.41;101037.94;10389773;28;20148;-71
2021/09/01 09:31:31;;;;;;;19.77;8.52;;;;;;;17.54;58.27;101027.94;10388219;28;20056;-71
2021/09/01 09:36:33;;;;;;;13.35;9.18;;;;;;;17.77;57.43;101040.38;10414209;28;20063;-71
2021/09/01 09:41:35;;;;;;;17.08;8.93;;;;;;;18.01;56.96;101037.75;10388312;28;20067;-72
2021/09/01 09:46:48;;;;;;;22.75;9.43;;;;;;;18.34;56.22;101040.59;10386922;28;20196;-71
2021/09/01 09:51:50;;;;;;;14.80;6.93;;;;;;;18.68;55.98;101039.75;10387870;28;20111;-71
2021/09/01 09:57:06;;;;;;;15.07;7.50;;;;;;;18.65;56.01;101042.63;10408080;28;20486;-71
2021/09/01 10:02:08;;;;;;;13.23;6.55;;;;;;;19.10;55.91;101031.19;10387638;28;20759;-71
2021/09/01 10:07:10;;;;;;;10.25;5.80;;;;;;;19.24;55.08;101030.09;10426849;28;20587;-71
2021/09/01 10:12:12;;;;;;;12.85;6.50;;;;;;;19.37;53.79;101029.03;10406094;28;20157;-71
2021/09/01 10:17:14;;;;;;;16.20;6.50;;;;;;;19.33;54.11;101024.94;10425606;28;20148;-71
2021/09/01 10:22:17;;;;;;;14.57;7.40;;;;;;;19.12;54.05;101018.63;10389751;28;20136;-71
2021/09/01 10:27:27;;;;;;;12.73;6.47;;;;;;;19.38;53.79;101016.56;10385190;28;20186;-71
2021/09/01 10:32:44;;;;;;;12.23;6.82;;;;;;;19.89;52.28;101008.94;10421864;28;20060;-71
2021/09/01 10:37:51;;;;;;;15.82;6.38;;;;;;;20.19;50.90;101004.59;10424756;28;20966;-71
2021/09/01 10:42:54;;;;;;;12.60;5.75;;;;;;;19.75;51.01;101010.03;10408464;28;20129;-71
2021/09/01 10:47:59;;;;;;;12.45;5.00;;;;;;;20.06;50.18;101005.75;10385554;28;20050;-71
2021/09/01 10:53:19;;;;;;;13.88;5.65;;;;;;;19.92;49.61;101003.38;10418397;28;20084;-71
2021/09/01 10:58:21;;;;;;;;;;;;;;;20.14;49.08;101004.16;10431717;28;20055;-72
2021/09/01 11:03:34;;;;;;;13.02;5.00;;;;;;;20.56;47.99;100982.94;10434899;28;19924;-71
2021/09/01 11:08:37;;;;;;;11.27;4.85;;;;;;;20.75;48.69;100975.09;10433257;28;20060;-71
2021/09/01 11:13:42;;;;;;;9.52;4.50;;;;;;;21.09;47.41;100977.38;10394163;28;20057;-71
2021/09/01 11:19:07;;;;;;;13.57;4.57;;;;;;;21.58;45.15;100970.41;10435068;28;20543;-71
2021/09/01 11:24:11;;;;;;;11.10;3.92;;;;;;;22.02;44.21;100967.25;10434267;28;20854;-71
2021/09/01 11:29:13;;;;;;;8.00;3.45;;;;;;;21.71;44.40;100965.69;10392548;28;20609;-70
2021/09/01 11:34:14;;;;;;;7.13;3.60;;;;;;;21.92;43.29;100961.91;10393106;28;20136;-71
2021/09/01 11:39:17;;;;;;;5.28;3.15;;;;;;;22.58;42.08;100965.56;10393011;28;20142;-70
2021/09/01 11:44:19;;;;;;;9.27;3.15;;;;;;;22.67;41.78;100959.38;10431455;28;20673;-70
2021/09/01 11:49:22;;;;;;;6.45;3.45;;;;;;;22.51;41.66;100961.78;10433086;28;20124;-71
2021/09/01 11:54:23;;;;;;;7.55;3.45;;;;;;;22.10;41.73;100961.25;10433494;28;20174;-71
2021/09/01 11:59:26;;;;;;;8.70;3.60;;;;;;;21.92;41.48;100966.41;10432764;28;20063;-70
2021/09/01 12:04:28;;;;;;;5.32;3.17;;;;;;;21.95;42.10;100965.28;10432861;28;20958;-71
2021/09/01 12:09:57;;;;;;;11.18;3.60;;;;;;;22.53;40.67;100962.50;10391772;28;20053;-71
2021/09/01 12:15:14;;;;;;;7.57;3.55;;;;;;;22.62;39.82;100960.75;10432048;28;20638;-70
2021/09/01 12:20:16;;;;;;;9.13;3.97;;;;;;;21.92;40.69;100969.91;10410304;28;20053;-70
2021/09/01 12:25:23;;;;;;;8.90;4.28;;;;;;;21.43;42.33;100962.00;10432187;28;20049;-70
2021/09/01 12:30:27;;;;;;;7.10;3.55;;;;;;;21.31;42.46;100956.88;10431857;28;20077;-70
2021/09/01 12:35:31;;;;;;;9.02;3.60;;;;;;;20.90;43.10;100953.38;10431747;28;20089;-70
2021/09/01 12:40:38;;;;;;;8.55;3.55;;;;;;;20.83;43.04;100960.19;10429630;28;20469;-70
2021/09/01 12:45:44;;;;;;;8.40;4.82;;;;;;;20.64;43.74;100957.41;10392369;28;20056;-70
2021/09/01 12:50:48;;;;;;;8.68;3.60;;;;;;;20.83;43.61;100952.19;10410713;28;20387;-70
2021/09/01 12:55:58;;;;;;;9.70;3.83;;;;;;;21.27;42.77;100937.69;10393764;28;20767;-70
2021/09/01 13:00:59;;;;;;;;;;;;;;;20.96;42.83;100936.03;10430313;28;20128;-70
2021/09/01 13:06:02;;;;;;;7.75;3.75;;;;;;;21.21;42.84;100929.41;10430236;28;19934;-70
2021/09/01 13:11:03;;;;;;;6.22;2.22;;;;;;;21.02;42.80;100935.50;10389975;28;20141;-70
2021/09/01 13:16:05;;;;;;;9.43;3.70;;;;;;;21.18;43.14;100929.66;10429611;28;20057;-70
2021/09/01 13:21:07;;;;;;;7.30;3.70;;;;;;;21.66;41.62;100920.00;10429085;28;20060;-70
2021/09/01 13:26:08;;;;;;;7.20;3.85;;;;;;;22.02;40.49;100921.97;10424462;28;20148;-69
2021/09/01 13:31:11;;;;;;;8.55;3.50;;;;;;;22.52;40.01;100919.97;10428440;28;20053;-69
2021/09/01 13:36:14;;;;;;;10.93;4.32;;;;;;;22.67;38.75;100916.72;10429063;28;20049;-69
2021/09/01 13:41:17;;;;;;;11.45;3.80;;;;;;;22.98;38.35;100911.13;10403164;28;20053;-69
2021/09/01 13:46:21;;;;;;;9.23;4.40;;;;;;;23.09;38.18;100913.59;10429198;28;20053;-69
2021/09/01 13:51:23;;;;;;;6.15;3.35;;;;;;;23.57;38.65;100908.00;10429173;28;20536;-69
2021/09/01 13:56:25;;;;;;;6.85;3.33;;;;;;;23.92;37.21;100890.13;10386721;28;20062;-69
2021/09/01 14:01:27;;;;;;;6.20;3.65;;;;;;;23.94;36.86;100885.47;10387080;28;20053;-69
2021/09/01 14:06:29;;;;;;;6.55;3.00;;;;;;;23.87;37.30;100878.25;10423261;28;20168;-69
2021/09/01 14:11:31;;;;;;;7.78;3.92;;;;;;;23.35;37.14;100883.38;10386249;28;20536;-69
2021/09/01 14:16:33;;;;;;;9.07;4.22;;;;;;;23.13;37.76;100878.47;10415329;28;20049;-69
2021/09/01 14:21:35;;;;;;;9.63;3.55;;;;;;;22.53;38.45;100884.31;10426243;28;20049;-68
2021/09/01 14:26:36;;;;;;;8.40;3.78;;;;;;;22.42;38.91;100884.50;10387740;28;20569;-69
2021/09/01 14:31:38;;;;;;;7.25;3.35;;;;;;;22.13;38.57;100881.88;10420406;28;20045;-69
2021/09/01 14:36:40;;;;;;;5.55;3.10;;;;;;;22.43;38.12;100872.84;10384631;28;20729;-68
2021/09/01 14:41:42;;;;;;;6.50;3.10;;;;;;;22.37;38.41;100881.44;10420158;28;20124;-68
2021/09/01 14:46:44;;;;;;;7.95;3.28;;;;;;;22.28;38.15;100879.63;10427494;28;20131;-70
2021/09/01 14:51:46;;;;;;;7.03;3.40;;;;;;;22.15;39.33;100879.91;10426255;28;20179;-68
2021/09/01 14:56:49;;;;;;;5.95;2.50;;;;;;;22.15;39.50;100874.59;10386929;28;20517;-68
2021/09/01 15:01:51;;;;;;;6.82;3.10;;;;;;;21.80;40.12;100871.66;10385308;28;20056;-71
2021/09/01 15:06:53;;;;;;;6.53;3.33;;;;;;;21.43;40.60;100871.50;10426314;28;20541;-69
2021/09/01 15:11:56;;;;;;;6.90;3.53;;;;;;;21.19;41.21;100867.50;10427746;28;20390;-68
2021/09/01 15:17:01;;;;;;;5.82;2.90;;;;;;;21.01;41.74;100861.97;10400468;28;20057;-69
2021/09/01 15:22:04;;;;;;;6.03;3.45;;;;;;;20.88;41.72;100864.06;10404157;28;20323;-68
2021/09/01 15:27:06;;;;;;;6.18;3.00;;;;;;;20.77;42.28;100862.34;10386472;28;20049;-68
2021/09/01 15:32:09;;;;;;;6.45;3.45;;;;;;;20.62;43.00;100857.53;10426473;28;20048;-69
2021/09/01 15:37:11;;;;;;;7.00;3.30;;;;;;;20.51;43.57;100857.56;10423380;28;20056;-70
2021/09/01 15:42:17;;;;;;;8.10;3.67;;;;;;;20.26;44.16;100846.41;10400868;28;20057;-70
2021/09/01 15:47:23;;;;;;;6.90;3.30;;;;;;;20.02;43.38;100851.13;10393166;28;20056;-70
2021/09/01 15:52:31;;;;;;;5.97;2.70;;;;;;;19.79;44.66;100846.88;10390609;28;20053;-70
2021/09/01 15:57:38;;;;;;;6.90;2.80;;;;;;;20.27;44.04;100836.63;10397811;28;20153;-70
2021/09/01 16:02:43;;;;;;;7.45;3.05;;;;;;;20.75;42.62;100828.88;10433198;28;20132;-70
2021/09/01 16:07:54;;;;;;;7.47;3.30;;;;;;;20.92;42.69;100829.09;10431868;28;20065;-70
2021/09/01 16:12:58;;;;;;;6.63;2.95;;;;;;;21.03;42.06;100820.13;10432403;28;20085;-70
2021/09/01 16:18:14;;;;;;;7.10;2.90;;;;;;;20.83;42.10;100815.75;10417595;28;20139;-71
2021/09/01 16:23:17;;;;;;;9.40;3.38;;;;;;;20.85;41.93;100811.97;10432449;28;20139;-70
2021/09/01 16:28:23;;;;;;;5.38;3.00;;;;;;;20.68;41.46;100815.28;10432266;28;20148;-70
2021/09/01 16:33:26;;;;;;;9.48;3.40;;;;;;;20.75;42.37;100816.44;10421693;28;20131;-71
2021/09/01 16:38:28;;;;;;;8.95;3.55;;;;;;;20.68;41.83;100825.09;10431753;28;20164;-70
2021/09/01 16:43:37;;;;;;;6.18;2.83;;;;;;;20.67;42.23;100824.25;10410169;28;20056;-70
2021/09/01 16:48:39;;;;;;;6.15;2.83;;;;;;;20.45;42.77;100829.72;10412797;28;20076;-70
2021/09/01 16:53:45;;;;;;;6.32;3.00;;;;;;;20.27;43.20;100832.13;10429727;28;20052;-70
2021/09/01 16:59:21;;;;;;;7.78;3.50;;;;;;;20.02;43.73;100832.56;10430956;28;20057;-70
2021/09/01 17:04:25;;;;;;;7.95;3.45;;;;;;;19.83;45.43;100827.09;10410910;28;21232;-71
2021/09/01 17:09:27;;;;;;;4.63;2.60;;;;;;;19.58;46.02;100831.91;10430121;28;20061;-71
2021/09/01 17:14:29;;;;;;;5.65;2.63;;;;;;;19.52;46.00;100822.66;10429550;28;20076;-70
2021/09/01 17:19:36;;;;;;;4.47;2.45;;;;;;;19.44;46.33;100828.56;10395869;28;20160;-71
2021/09/01 17:24:38;;;;;;;7.22;3.05;;;;;;;19.31;46.73;100829.72;10387341;28;20058;-71
2021/09/01 17:29:50;;;;;;;5.85;2.60;;;;;;;19.10;47.74;100832.31;10402305;28;20059;-71
2021/09/01 17:34:52;;;;;;;6.97;3.00;;;;;;;18.92;47.89;100831.09;10399818;28;20341;-71
2021/09/01 17:39:56;;;;;;;5.80;2.60;;;;;;;18.75;48.27;100833.44;10388748;28;20137;-71
2021/09/01 17:45:00;;;;;;;6.25;2.97;;;;;;;18.56;48.50;100842.78;10388280;28;20055;-71
2021/09/01 17:50:02;;;;;;;5.82;2.60;;;;;;;18.35;49.66;100841.00;10389432;28;20262;-71
2021/09/01 17:55:05;;;;;;;6.10;3.10;;;;;;;18.15;49.88;100841.66;10401060;28;20607;-71
2021/09/01 18:00:10;;;;;;;8.55;3.10;;;;;;;17.92;50.32;100840.75;10385362;28;20057;-71
2021/09/01 18:05:12;;;;;;;7.38;3.42;;;;;;;17.70;50.66;100843.34;10383800;28;20583;-71
2021/09/01 18:10:13;;;;;;;6.60;3.33;;;;;;;17.45;51.31;100846.09;10400500;28;20503;-71
2021/09/01 18:15:15;;;;;;;8.63;3.88;;;;;;;17.20;51.76;100849.66;10424184;28;20167;-71
2021/09/01 18:20:17;;;;;;;6.45;3.50;;;;;;;17.07;52.28;100862.09;10386265;28;20056;-71
2021/09/01 18:25:18;;;;;;;11.05;6.55;;;;;;;17.01;53.29;100862.53;10425958;28;20045;-70
2021/09/01 18:30:24;;;;;;;11.20;5.72;;;;;;;16.85;53.97;100873.34;10425942;28;20101;-71
2021/09/01 18:35:26;;;;;;;8.57;6.00;;;;;;;16.72;54.46;100875.19;10403832;28;20057;-71
2021/09/01 18:40:28;;;;;;;11.02;6.05;;;;;;;16.65;54.60;100886.28;10398283;28;20132;-70
2021/09/01 18:45:34;;;;;;;12.90;6.03;;;;;;;16.47;55.48;100888.38;10386100;28;20154;-71
2021/09/01 18:50:36;;;;;;;12.13;6.72;;;;;;;16.36;55.64;100890.91;10388814;28;20049;-68
2021/09/01 18:55:41;;;;;;;12.68;6.50;;;;;;;16.24;56.27;100897.84;10426068;28;20056;-67
2021/09/01 19:00:43;;;;;;;13.07;7.65;;;;;;;16.02;56.71;100905.53;10427214;28;20128;-67
2021/09/01 19:05:52;;;;;;;13.75;7.28;;;;;;;15.99;57.37;100908.38;10426369;28;20063;-67
2021/09/01 19:10:55;;;;;;;10.38;7.82;;;;;;;15.97;57.20;100907.63;10426440;28;20136;-67
2021/09/01 19:15:57;;;;;;;11.57;7.07;;;;;;;15.99;57.10;100903.09;10425445;28;20045;-67
2021/09/01 19:20:59;;;;;;;11.93;7.55;;;;;;;15.82;57.61;100915.69;10407050;28;20387;-67
2021/09/01 19:26:01;;;;;;;10.13;6.80;;;;;;;15.82;57.96;100918.34;10400688;28;20516;-68
2021/09/01 19:31:03;;;;;;;11.98;7.55;;;;;;;15.68;58.21;100928.94;10434530;28;20055;-67
2021/09/01 19:36:06;;;;;;;10.48;7.03;;;;;;;15.54;58.51;100931.63;10433483;28;20505;-68
2021/09/01 19:41:08;;;;;;;12.52;7.97;;;;;;;15.59;58.67;100933.03;10432522;28;20045;-67
2021/09/01 19:46:10;;;;;;;11.65;7.35;;;;;;;15.75;58.59;100931.09;10433546;28;20127;-67
2021/09/01 19:51:13;;;;;;;13.75;8.48;;;;;;;15.79;57.93;100939.66;10402365;28;20552;-67
2021/09/01 19:56:17;;;;;;;11.75;8.55;;;;;;;15.75;57.94;100933.75;10392106;28;20132;-68
2021/09/01 20:01:19;;;;;;;13.95;8.15;;;;;;;15.78;58.42;100946.72;10392187;28;20836;-67
2021/09/01 20:06:21;;;;;;;12.02;8.32;;;;;;;15.93;57.76;100936.97;10432154;28;20515;-68
2021/09/01 20:11:24;;;;;;;11.35;8.23;;;;;;;15.95;57.69;100940.34;10416166;28;20100;-67
2021/09/01 20:16:28;;;;;;;12.90;9.05;;;;;;;15.86;57.76;100954.13;10432268;28;20061;-67
2021/09/01 20:21:31;;;;;;;13.93;8.43;;;;;;;15.66;58.06;100951.94;10430429;28;20136;-68
2021/09/01 20:26:35;;;;;;;13.02;8.60;;;;;;;15.59;58.74;100950.66;10432688;28;20120;-67
2021/09/01 20:31:37;;;;;;;15.75;9.20;;;;;;;15.47;59.02;100954.03;10430958;28;20139;-67
2021/09/01 20:36:39;;;;;;;11.20;8.32;;;;;;;15.26;59.54;100961.50;10431126;28;20053;-67
2021/09/01 20:41:42;;;;;;;12.80;8.82;;;;;;;15.13;60.23;100961.44;10414043;28;20049;-67
2021/09/01 20:46:55;;;;;;;12.80;8.48;;;;;;;14.99;60.48;100961.44;10430687;28;20581;-67
2021/09/01 20:52:11;;;;;;;12.32;8.77;;;;;;;14.87;61.23;100962.19;10407336;28;20124;-66
2021/09/01 20:57:14;;;;;;;13.32;8.85;;;;;;;14.79;61.24;100942.53;10386453;28;20057;-67
2021/09/01 21:02:16;;;;;;;12.73;9.30;;;;;;;14.69;61.34;100941.41;10388169;28;20049;-67
2021/09/01 21:07:19;;;;;;;15.15;9.50;;;;;;;14.62;61.51;100946.19;10402434;28;20061;-67
2021/09/01 21:12:21;;;;;;;13.10;9.63;;;;;;;14.51;61.84;100949.44;10428941;28;20152;-67
2021/09/01 21:17:24;;;;;;;13.82;9.50;;;;;;;14.41;62.30;100947.47;10427100;28;20059;-67
2021/09/01 21:22:32;;;;;;;14.38;10.15;;;;;;;14.23;62.71;100945.88;10404995;28;20136;-67
2021/09/01 21:27:34;;;;;;;16.33;10.18;;;;;;;14.14;62.91;100947.28;10389751;28;20512;-67
2021/09/01 21:32:37;;;;;;;14.48;9.93;;;;;;;14.04;63.04;100955.81;10388567;28;20138;-66
2021/09/01 21:37:39;;;;;;;15.23;10.13;;;;;;;13.99;63.03;100949.94;10390124;28;20059;-66
2021/09/01 21:42:40;;;;;;;14.25;9.43;;;;;;;13.88;63.06;100963.69;10388233;28;20072;-67
2021/09/01 21:47:42;;;;;;;18.13;9.93;;;;;;;13.78;63.45;100963.38;10387451;28;20054;-67
2021/09/01 21:52:44;;;;;;;13.98;10.25;;;;;;;13.71;63.61;100954.16;10387900;28;20476;-67
2021/09/01 21:57:46;;;;;;;16.35;10.30;;;;;;;13.64;63.62;100957.19;10387130;28;20052;-67
2021/09/01 22:02:47;;;;;;;16.75;10.70;;;;;;;13.57;63.79;100961.97;10438856;28;20136;-66
2021/09/01 22:07:49;;;;;;;16.17;10.43;;;;;;;13.56;63.80;100960.28;10397174;28;20061;-66
2021/09/01 22:12:52;;;;;;;13.77;9.80;;;;;;;13.51;63.79;100964.94;10397683;28;20041;-67
2021/09/01 22:17:54;;;;;;;15.60;10.05;;;;;;;13.45;64.07;100970.56;10389972;28;20052;-67
2021/09/01 22:22:56;;;;;;;18.65;10.48;;;;;;;13.46;63.76;100976.63;10397780;28;20051;-66
2021/09/01 22:27:57;;;;;;;15.32;9.88;;;;;;;13.42;63.83;100975.06;10393240;28;20136;-67
2021/09/01 22:32:59;;;;;;;14.55;9.65;;;;;;;13.38;63.96;100973.53;10386091;28;20459;-66
2021/09/01 22:38:02;;;;;;;14.40;10.27;;;;;;;13.28;63.95;100973.22;10385369;28;20475;-67
2021/09/01 22:43:04;;;;;;;24.00;11.77;;;;;;;13.14;64.40;100975.72;10386091;28;20053;-67
2021/09/01 22:48:06;;;;;;;15.82;9.68;;;;;;;13.09;64.28;100972.50;10385530;28;20148;-67
2021/09/01 22:53:09;;;;;;;15.38;10.18;;;;;;;13.01;64.61;100976.44;10389529;28;20764;-67
2021/09/01 22:58:10;;;;;;;17.63;10.73;;;;;;;12.95;64.30;100982.88;10386183;28;20093;-66
2021/09/01 23:03:12;;;;;;;16.10;9.77;;;;;;;12.88;64.69;100979.72;10385072;28;20575;-66